sensor_id;sensor_type;location;lat;lon;timestamp;pressure;altitude;pressure_sealevel;temperature;humidity
62634;BME280;48704;50.534;6.442;2023-02-19T00:01:23;95791.16;;;6.55;100.00
62634;BME280;48704;50.534;6.442;2023-02-19T00:03:54;95790.06;;;6.53;100.00
62634;BME280;48704;50.534;6.442;2023-02-19T00:06:21;95792.63;;;6.47;100.00
62634;BME280;48704;50.534;6.442;2023-02-19T00:08:47;95798.47;;;6.49;100.00
62634;BME280;48704;50.534;6.442;2023-02-19T00:11:15;95779.22;;;6.46;100.00
62634;BME280;48704;50.534;6.442;2023-02-19T00:13:43;95786.31;;;6.47;100.00
62634;BME280;48704;50.534;6.442;2023-02-19T00:16:11;95781.66;;;6.44;100.00
62634;BME280;48704;50.534;6.442;2023-02-19T00:18:37;95776.13;;;6.44;100.00
62634;BME280;48704;50.534;6.442;2023-02-19T00:21:03;95776.91;;;6.44;100.00
62634;BME280;48704;50.534;6.442;2023-02-19T00:23:28;95783.97;;;6.45;100.00
62634;BME280;48704;50.534;6.442;2023-02-19T00:25:54;95804.47;;;6.48;100.00
62634;BME280;48704;50.534;6.442;2023-02-19T00:28:20;95785.41;;;6.50;100.00
62634;BME280;48704;50.534;6.442;2023-02-19T00:30:45;95800.47;;;6.49;100.00
62634;BME280;48704;50.534;6.442;2023-02-19T00:33:10;95793.84;;;6.46;100.00
62634;BME280;48704;50.534;6.442;2023-02-19T00:35:36;95779.22;;;6.46;100.00
62634;BME280;48704;50.534;6.442;2023-02-19T00:38:02;95769.25;;;6.48;100.00
62634;BME280;48704;50.534;6.442;2023-02-19T00:40:27;95776.78;;;6.48;100.00
62634;BME280;48704;50.534;6.442;2023-02-19T00:42:53;95772.34;;;6.50;100.00
62634;BME280;48704;50.534;6.442;2023-02-19T00:45:18;95779.88;;;6.50;100.00
62634;BME280;48704;50.534;6.442;2023-02-19T00:47:44;95759.72;;;6.49;100.00
62634;BME280;48704;50.534;6.442;2023-02-19T00:50:09;95752.66;;;6.48;100.00
62634;BME280;48704;50.534;6.442;2023-02-19T00:52:35;95753.88;;;6.47;100.00
62634;BME280;48704;50.534;6.442;2023-02-19T00:55:00;95762.63;;;6.46;100.00
62634;BME280;48704;50.534;6.442;2023-02-19T00:57:26;95729.28;;;6.49;100.00
62634;BME280;48704;50.534;6.442;2023-02-19T00:59:51;95771.47;;;6.53;100.00
62634;BME280;48704;50.534;6.442;2023-02-19T01:02:17;95753.63;;;6.54;100.00
62634;BME280;48704;50.534;6.442;2023-02-19T01:04:42;95767.13;;;6.52;100.00
62634;BME280;48704;50.534;6.442;2023-02-19T01:07:07;95741.00;;;6.53;100.00
62634;BME280;48704;50.534;6.442;2023-02-19T01:09:33;95752.06;;;6.53;100.00
62634;BME280;48704;50.534;6.442;2023-02-19T01:11:58;95731.94;;;6.53;100.00
62634;BME280;48704;50.534;6.442;2023-02-19T01:14:23;95725.16;;;6.54;100.00
62634;BME280;48704;50.534;6.442;2023-02-19T01:16:49;95765.59;;;6.51;100.00
62634;BME280;48704;50.534;6.442;2023-02-19T01:19:14;95774.22;;;6.53;100.00
62634;BME280;48704;50.534;6.442;2023-02-19T01:21:40;95746.22;;;6.51;100.00
62634;BME280;48704;50.534;6.442;2023-02-19T01:24:05;95778.22;;;6.52;100.00
62634;BME280;48704;50.534;6.442;2023-02-19T01:26:31;95775.13;;;6.50;100.00
62634;BME280;48704;50.534;6.442;2023-02-19T01:29:00;95760.94;;;6.48;100.00
62634;BME280;48704;50.534;6.442;2023-02-19T01:31:27;95764.94;;;6.47;100.00
62634;BME280;48704;50.534;6.442;2023-02-19T01:33:55;95748.31;;;6.47;100.00
62634;BME280;48704;50.534;6.442;2023-02-19T01:36:21;95748.97;;;6.51;100.00
62634;BME280;48704;50.534;6.442;2023-02-19T01:38:47;95764.81;;;6.51;100.00
62634;BME280;48704;50.534;6.442;2023-02-19T01:41:16;95760.94;;;6.48;100.00
62634;BME280;48704;50.534;6.442;2023-02-19T01:44:01;95712.66;;;6.49;100.00
62634;BME280;48704;50.534;6.442;2023-02-19T01:46:36;95741.56;;;6.48;100.00
62634;BME280;48704;50.534;6.442;2023-02-19T01:49:12;95739.13;;;6.50;100.00
62634;BME280;48704;50.534;6.442;2023-02-19T01:51:43;95743.56;;;6.48;100.00
62634;BME280;48704;50.534;6.442;2023-02-19T01:54:10;95732.94;;;6.46;100.00
62634;BME280;48704;50.534;6.442;2023-02-19T01:56:39;95727.84;;;6.45;100.00
62634;BME280;48704;50.534;6.442;2023-02-19T01:59:07;95754.88;;;6.41;100.00
62634;BME280;48704;50.534;6.442;2023-02-19T02:01:33;95731.19;;;6.40;100.00
62634;BME280;48704;50.534;6.442;2023-02-19T02:03:58;95731.97;;;6.40;100.00
62634;BME280;48704;50.534;6.442;2023-02-19T02:06:31;95747.66;;;6.43;100.00
62634;BME280;48704;50.534;6.442;2023-02-19T02:08:59;95726.75;;;6.42;100.00
62634;BME280;48704;50.534;6.442;2023-02-19T02:11:46;95719.34;;;6.39;100.00
62634;BME280;48704;50.534;6.442;2023-02-19T02:14:13;95731.97;;;6.40;100.00
62634;BME280;48704;50.534;6.442;2023-02-19T02:17:07;95737.16;;;6.38;100.00
62634;BME280;48704;50.534;6.442;2023-02-19T02:22:17;95748.69;;;6.36;100.00
62634;BME280;48704;50.534;6.442;2023-02-19T02:27:56;95746.69;;;6.37;100.00
62634;BME280;48704;50.534;6.442;2023-02-19T02:33:16;95746.34;;;6.35;100.00
62634;BME280;48704;50.534;6.442;2023-02-19T02:36:40;95763.22;;;6.28;100.00
62634;BME280;48704;50.534;6.442;2023-02-19T02:38:58;95752.72;;;6.23;100.00
62634;BME280;48704;50.534;6.442;2023-02-19T02:41:25;95747.63;;;6.21;100.00
62634;BME280;48704;50.534;6.442;2023-02-19T02:43:50;95735.53;;;6.28;100.00
62634;BME280;48704;50.534;6.442;2023-02-19T02:46:23;95744.41;;;6.23;100.00
62634;BME280;48704;50.534;6.442;2023-02-19T02:48:56;95741.75;;;6.19;100.00
62634;BME280;48704;50.534;6.442;2023-02-19T02:51:29;95748.72;;;6.24;100.00
62634;BME280;48704;50.534;6.442;2023-02-19T02:54:00;95752.50;;;6.17;100.00
62634;BME280;48704;50.534;6.442;2023-02-19T02:56:47;95758.47;;;6.16;100.00
62634;BME280;48704;50.534;6.442;2023-02-19T02:59:16;95759.03;;;6.11;100.00
62634;BME280;48704;50.534;6.442;2023-02-19T03:01:45;95750.41;;;6.09;100.00
62634;BME280;48704;50.534;6.442;2023-02-19T03:10:48;95753.50;;;6.11;100.00
62634;BME280;48704;50.534;6.442;2023-02-19T03:13:24;95759.91;;;6.08;100.00
62634;BME280;48704;50.534;6.442;2023-02-19T03:16:17;95752.81;;;6.07;100.00
62634;BME280;48704;50.534;6.442;2023-02-19T03:19:04;95758.59;;;5.99;100.00
62634;BME280;48704;50.534;6.442;2023-02-19T03:22:05;95757.03;;;5.98;100.00
62634;BME280;48704;50.534;6.442;2023-02-19T03:24:39;95750.84;;;5.94;100.00
62634;BME280;48704;50.534;6.442;2023-02-19T03:27:26;95760.69;;;5.95;100.00
62634;BME280;48704;50.534;6.442;2023-02-19T03:29:53;95765.00;;;5.96;100.00
62634;BME280;48704;50.534;6.442;2023-02-19T03:34:56;95766.78;;;5.90;100.00
62634;BME280;48704;50.534;6.442;2023-02-19T03:37:28;95772.22;;;5.94;100.00
62634;BME280;48704;50.534;6.442;2023-02-19T03:39:54;95765.91;;;5.93;100.00
62634;BME280;48704;50.534;6.442;2023-02-19T03:45:47;95787.72;;;5.91;100.00
62634;BME280;48704;50.534;6.442;2023-02-19T03:48:23;95789.44;;;5.98;100.00
62634;BME280;48704;50.534;6.442;2023-02-19T03:51:03;95792.66;;;5.96;100.00
62634;BME280;48704;50.534;6.442;2023-02-19T03:56:10;95800.50;;;5.98;100.00
62634;BME280;48704;50.534;6.442;2023-02-19T03:58:55;95782.19;;;5.91;100.00
62634;BME280;48704;50.534;6.442;2023-02-19T04:01:49;95783.16;;;5.97;100.00
62634;BME280;48704;50.534;6.442;2023-02-19T04:04:21;95792.22;;;5.98;100.00
62634;BME280;48704;50.534;6.442;2023-02-19T04:06:53;95792.66;;;5.96;100.00
62634;BME280;48704;50.534;6.442;2023-02-19T04:09:20;95795.44;;;5.96;100.00
62634;BME280;48704;50.534;6.442;2023-02-19T04:11:49;95805.41;;;5.94;100.00
62634;BME280;48704;50.534;6.442;2023-02-19T04:14:20;95806.81;;;5.98;100.00
62634;BME280;48704;50.534;6.442;2023-02-19T04:16:51;95816.34;;;5.97;100.00
62634;BME280;48704;50.534;6.442;2023-02-19T04:19:20;95806.94;;;5.95;100.00
62634;BME280;48704;50.534;6.442;2023-02-19T04:21:49;95819.53;;;5.96;100.00
62634;BME280;48704;50.534;6.442;2023-02-19T04:24:22;95825.72;;;5.87;100.00
62634;BME280;48704;50.534;6.442;2023-02-19T04:26:49;95827.41;;;5.97;100.00
62634;BME280;48704;50.534;6.442;2023-02-19T04:29:15;95827.06;;;5.95;100.00
62634;BME280;48704;50.534;6.442;2023-02-19T04:31:40;95853.66;;;5.93;100.00
62634;BME280;48704;50.534;6.442;2023-02-19T04:34:05;95847.00;;;5.90;100.00
62634;BME280;48704;50.534;6.442;2023-02-19T04:36:31;95844.22;;;5.90;100.00
62634;BME280;48704;50.534;6.442;2023-02-19T04:38:57;95867.91;;;5.91;100.00
62634;BME280;48704;50.534;6.442;2023-02-19T04:41:22;95859.44;;;5.82;100.00
62634;BME280;48704;50.534;6.442;2023-02-19T04:43:47;95856.16;;;5.87;100.00
62634;BME280;48704;50.534;6.442;2023-02-19T04:46:13;95860.06;;;5.90;100.00
62634;BME280;48704;50.534;6.442;2023-02-19T04:48:38;95850.81;;;5.80;100.00
62634;BME280;48704;50.534;6.442;2023-02-19T04:51:07;95862.56;;;5.84;100.00
62634;BME280;48704;50.534;6.442;2023-02-19T04:53:33;95852.16;;;5.88;100.00
62634;BME280;48704;50.534;6.442;2023-02-19T04:56:13;95862.91;;;5.86;100.00
62634;BME280;48704;50.534;6.442;2023-02-19T04:58:39;95866.97;;;5.82;100.00
62634;BME280;48704;50.534;6.442;2023-02-19T05:01:04;95857.22;;;5.77;100.00
62634;BME280;48704;50.534;6.442;2023-02-19T05:03:30;95867.50;;;5.77;100.00
62634;BME280;48704;50.534;6.442;2023-02-19T05:05:55;95878.78;;;5.69;100.00
62634;BME280;48704;50.534;6.442;2023-02-19T05:08:21;95875.56;;;5.71;100.00
62634;BME280;48704;50.534;6.442;2023-02-19T05:10:46;95879.56;;;5.70;100.00
62634;BME280;48704;50.534;6.442;2023-02-19T05:13:11;95874.44;;;5.56;100.00
62634;BME280;48704;50.534;6.442;2023-02-19T05:15:37;95880.44;;;5.67;100.00
62634;BME280;48704;50.534;6.442;2023-02-19T05:18:03;95881.31;;;5.64;100.00
62634;BME280;48704;50.534;6.442;2023-02-19T05:20:28;95870.34;;;5.60;100.00
62634;BME280;48704;50.534;6.442;2023-02-19T05:22:53;95882.41;;;5.66;100.00
62634;BME280;48704;50.534;6.442;2023-02-19T05:25:18;95904.28;;;5.61;100.00
62634;BME280;48704;50.534;6.442;2023-02-19T05:27:44;95902.09;;;5.56;100.00
62634;BME280;48704;50.534;6.442;2023-02-19T05:30:09;95900.63;;;5.51;100.00
62634;BME280;48704;50.534;6.442;2023-02-19T05:32:35;95916.34;;;5.54;100.00
62634;BME280;48704;50.534;6.442;2023-02-19T05:35:01;95903.06;;;5.62;100.00
62634;BME280;48704;50.534;6.442;2023-02-19T05:37:26;95906.72;;;5.59;100.00
62634;BME280;48704;50.534;6.442;2023-02-19T05:39:51;95890.13;;;5.59;100.00
62634;BME280;48704;50.534;6.442;2023-02-19T05:42:17;95904.28;;;5.61;100.00
62634;BME280;48704;50.534;6.442;2023-02-19T05:44:42;95912.91;;;5.63;100.00
62634;BME280;48704;50.534;6.442;2023-02-19T05:47:07;95912.91;;;5.63;100.00
62634;BME280;48704;50.534;6.442;2023-02-19T05:49:33;95912.16;;;5.62;100.00
62634;BME280;48704;50.534;6.442;2023-02-19T05:51:58;95911.47;;;5.58;100.00
62634;BME280;48704;50.534;6.442;2023-02-19T05:54:23;95920.22;;;5.57;100.00
62634;BME280;48704;50.534;6.442;2023-02-19T05:56:49;95921.19;;;5.50;100.00
62634;BME280;48704;50.534;6.442;2023-02-19T05:59:16;95921.09;;;5.54;100.00
62634;BME280;48704;50.534;6.442;2023-02-19T06:01:42;95913.16;;;5.56;100.00
62634;BME280;48704;50.534;6.442;2023-02-19T06:04:09;95927.50;;;5.51;100.00
62634;BME280;48704;50.534;6.442;2023-02-19T06:06:35;95932.16;;;5.54;100.00
62634;BME280;48704;50.534;6.442;2023-02-19T06:09:02;95929.25;;;5.57;100.00
62634;BME280;48704;50.534;6.442;2023-02-19T06:11:28;95937.34;;;5.52;100.00
62634;BME280;48704;50.534;6.442;2023-02-19T06:13:53;95948.72;;;5.54;100.00
62634;BME280;48704;50.534;6.442;2023-02-19T06:16:18;95943.22;;;5.54;100.00
62634;BME280;48704;50.534;6.442;2023-02-19T06:18:44;95945.13;;;5.41;100.00
62634;BME280;48704;50.534;6.442;2023-02-19T06:21:10;95943.66;;;5.52;100.00
62634;BME280;48704;50.534;6.442;2023-02-19T06:23:36;95943.75;;;5.49;100.00
62634;BME280;48704;50.534;6.442;2023-02-19T06:26:09;95952.81;;;5.49;100.00
62634;BME280;48704;50.534;6.442;2023-02-19T06:28:35;95969.66;;;5.38;100.00
62634;BME280;48704;50.534;6.442;2023-02-19T06:31:01;95969.13;;;5.44;100.00
62634;BME280;48704;50.534;6.442;2023-02-19T06:33:27;95958.44;;;5.46;100.00
62634;BME280;48704;50.534;6.442;2023-02-19T06:35:52;95969.13;;;5.44;100.00
62634;BME280;48704;50.534;6.442;2023-02-19T06:38:20;95967.16;;;5.28;100.00
62634;BME280;48704;50.534;6.442;2023-02-19T06:40:46;95962.41;;;5.45;100.00
62634;BME280;48704;50.534;6.442;2023-02-19T06:43:11;95975.19;;;5.38;100.00
62634;BME280;48704;50.534;6.442;2023-02-19T06:45:36;95958.84;;;5.44;100.00
62634;BME280;48704;50.534;6.442;2023-02-19T06:48:02;95967.59;;;5.43;100.00
62634;BME280;48704;50.534;6.442;2023-02-19T06:50:27;95964.63;;;5.50;100.00
62634;BME280;48704;50.534;6.442;2023-02-19T06:52:52;95963.09;;;5.49;100.00
62634;BME280;48704;50.534;6.442;2023-02-19T06:55:17;95970.94;;;5.50;100.00
62634;BME280;48704;50.534;6.442;2023-02-19T06:57:43;95982.78;;;5.51;100.00
62634;BME280;48704;50.534;6.442;2023-02-19T07:00:09;95975.25;;;5.51;100.00
62634;BME280;48704;50.534;6.442;2023-02-19T07:02:34;95990.91;;;5.42;100.00
62634;BME280;48704;50.534;6.442;2023-02-19T07:04:59;95982.97;;;5.44;100.00
62634;BME280;48704;50.534;6.442;2023-02-19T07:07:25;95978.81;;;5.52;100.00
62634;BME280;48704;50.534;6.442;2023-02-19T07:09:50;95983.63;;;5.48;100.00
62634;BME280;48704;50.534;6.442;2023-02-19T07:12:15;95983.72;;;5.44;100.00
62634;BME280;48704;50.534;6.442;2023-02-19T07:14:40;95999.53;;;5.44;100.00
62634;BME280;48704;50.534;6.442;2023-02-19T07:17:06;95996.59;;;5.51;100.00
62634;BME280;48704;50.534;6.442;2023-02-19T07:19:31;96003.34;;;5.50;100.00
62634;BME280;48704;50.534;6.442;2023-02-19T07:21:56;95985.19;;;5.49;100.00
62634;BME280;48704;50.534;6.442;2023-02-19T07:24:21;96008.16;;;5.46;100.00
62634;BME280;48704;50.534;6.442;2023-02-19T07:26:47;96010.59;;;5.44;100.00
62634;BME280;48704;50.534;6.442;2023-02-19T07:29:12;96010.59;;;5.44;100.00
62634;BME280;48704;50.534;6.442;2023-02-19T07:31:37;96014.41;;;5.33;100.00
62634;BME280;48704;50.534;6.442;2023-02-19T07:34:03;96013.44;;;5.40;100.00
62634;BME280;48704;50.534;6.442;2023-02-19T07:36:28;96021.81;;;5.53;100.00
62634;BME280;48704;50.534;6.442;2023-02-19T07:38:57;96019.06;;;5.53;100.00
62634;BME280;48704;50.534;6.442;2023-02-19T07:41:24;96027.34;;;5.53;100.00
62634;BME280;48704;50.534;6.442;2023-02-19T07:43:50;96038.22;;;5.44;100.00
62634;BME280;48704;50.534;6.442;2023-02-19T07:46:15;96031.22;;;5.39;100.00
62634;BME280;48704;50.534;6.442;2023-02-19T07:48:41;96044.72;;;5.37;100.00
62634;BME280;48704;50.534;6.442;2023-02-19T07:51:10;96043.06;;;5.40;100.00
62634;BME280;48704;50.534;6.442;2023-02-19T07:53:36;96043.94;;;5.36;100.00
62634;BME280;48704;50.534;6.442;2023-02-19T07:56:03;96032.53;;;5.34;100.00
62634;BME280;48704;50.534;6.442;2023-02-19T07:58:30;96040.03;;;5.34;100.00
62634;BME280;48704;50.534;6.442;2023-02-19T08:00:56;96059.13;;;5.28;100.00
62634;BME280;48704;50.534;6.442;2023-02-19T08:03:22;96062.75;;;5.42;100.00
62634;BME280;48704;50.534;6.442;2023-02-19T08:05:47;96054.13;;;5.40;100.00
62634;BME280;48704;50.534;6.442;2023-02-19T08:08:15;96051.53;;;5.49;100.00
62634;BME280;48704;50.534;6.442;2023-02-19T08:10:41;96057.16;;;5.45;100.00
62634;BME280;48704;50.534;6.442;2023-02-19T08:13:26;96067.50;;;5.41;100.00
62634;BME280;48704;50.534;6.442;2023-02-19T08:18:31;96078.13;;;5.43;100.00
62634;BME280;48704;50.534;6.442;2023-02-19T08:20:58;96072.94;;;5.45;100.00
62634;BME280;48704;50.534;6.442;2023-02-19T08:23:24;96090.56;;;5.51;100.00
62634;BME280;48704;50.534;6.442;2023-02-19T08:25:51;96082.78;;;5.46;100.00
62634;BME280;48704;50.534;6.442;2023-02-19T08:28:17;96086.09;;;5.57;100.00
62634;BME280;48704;50.534;6.442;2023-02-19T08:30:45;96087.59;;;5.58;100.00
62634;BME280;48704;50.534;6.442;2023-02-19T08:33:12;96095.38;;;5.63;100.00
62634;BME280;48704;50.534;6.442;2023-02-19T08:35:38;96094.69;;;5.59;100.00
62634;BME280;48704;50.534;6.442;2023-02-19T08:38:05;96115.25;;;5.58;100.00
62634;BME280;48704;50.534;6.442;2023-02-19T08:40:31;96110.41;;;5.62;100.00
62634;BME280;48704;50.534;6.442;2023-02-19T08:43:23;96105.59;;;5.50;100.00
62634;BME280;48704;50.534;6.442;2023-02-19T08:45:52;96110.06;;;5.60;100.00
62634;BME280;48704;50.534;6.442;2023-02-19T08:48:17;96106.63;;;5.56;100.00
62634;BME280;48704;50.534;6.442;2023-02-19T08:50:43;96119.91;;;5.61;100.00
62634;BME280;48704;50.534;6.442;2023-02-19T08:53:08;96118.53;;;5.69;100.00
62634;BME280;48704;50.534;6.442;2023-02-19T08:55:36;96108.84;;;5.61;100.00
62634;BME280;48704;50.534;6.442;2023-02-19T08:58:01;96119.84;;;5.64;100.00
62634;BME280;48704;50.534;6.442;2023-02-19T09:00:26;96123.63;;;5.70;100.00
62634;BME280;48704;50.534;6.442;2023-02-19T09:02:52;96131.50;;;5.72;100.00
62634;BME280;48704;50.534;6.442;2023-02-19T09:05:17;96138.41;;;5.80;100.00
62634;BME280;48704;50.534;6.442;2023-02-19T09:07:43;96130.63;;;5.75;100.00
62634;BME280;48704;50.534;6.442;2023-02-19T09:10:12;96123.47;;;5.78;100.00
62634;BME280;48704;50.534;6.442;2023-02-19T09:12:38;96143.09;;;5.83;100.00
62634;BME280;48704;50.534;6.442;2023-02-19T09:15:05;96147.47;;;5.64;100.00
62634;BME280;48704;50.534;6.442;2023-02-19T09:17:31;96140.66;;;5.69;100.00
62634;BME280;48704;50.534;6.442;2023-02-19T09:19:56;96146.91;;;5.57;100.00
62634;BME280;48704;50.534;6.442;2023-02-19T09:22:21;96164.16;;;5.77;100.00
62634;BME280;48704;50.534;6.442;2023-02-19T09:24:47;96146.53;;;5.71;100.00
62634;BME280;48704;50.534;6.442;2023-02-19T09:27:17;96150.34;;;5.77;100.00
62634;BME280;48704;50.534;6.442;2023-02-19T09:29:42;96154.84;;;5.87;100.00
62634;BME280;48704;50.534;6.442;2023-02-19T09:32:08;96145.63;;;5.94;100.00
62634;BME280;48704;50.534;6.442;2023-02-19T09:34:33;96163.66;;;5.98;100.00
62634;BME280;48704;50.534;6.442;2023-02-19T09:36:58;96150.59;;;5.99;100.00
62634;BME280;48704;50.534;6.442;2023-02-19T09:39:24;96162.25;;;5.74;100.00
62634;BME280;48704;50.534;6.442;2023-02-19T09:42:19;96151.38;;;5.99;100.00
62634;BME280;48704;50.534;6.442;2023-02-19T09:44:50;96161.75;;;5.95;100.00
62634;BME280;48704;50.534;6.442;2023-02-19T09:47:22;96174.72;;;5.82;100.00
62634;BME280;48704;50.534;6.442;2023-02-19T09:49:59;96164.09;;;5.97;100.00
62634;BME280;48704;50.534;6.442;2023-02-19T09:52:39;96157.06;;;6.25;100.00
62634;BME280;48704;50.534;6.442;2023-02-19T09:55:35;96172.97;;;6.21;100.00
62634;BME280;48704;50.534;6.442;2023-02-19T09:58:15;96160.00;;;6.18;100.00
62634;BME280;48704;50.534;6.442;2023-02-19T10:00:43;96160.72;;;6.06;100.00
62634;BME280;48704;50.534;6.442;2023-02-19T10:03:24;96176.63;;;6.01;100.00
62634;BME280;48704;50.534;6.442;2023-02-19T10:05:55;96177.75;;;5.88;100.00
62634;BME280;48704;50.534;6.442;2023-02-19T10:08:21;96172.47;;;5.77;100.00
62634;BME280;48704;50.534;6.442;2023-02-19T10:10:47;96163.47;;;5.57;100.00
62634;BME280;48704;50.534;6.442;2023-02-19T10:13:20;96179.72;;;5.71;100.00
62634;BME280;48704;50.534;6.442;2023-02-19T10:15:49;96173.31;;;5.74;100.00
62634;BME280;48704;50.534;6.442;2023-02-19T10:18:16;96172.19;;;5.71;100.00
62634;BME280;48704;50.534;6.442;2023-02-19T10:20:42;96183.94;;;5.76;100.00
62634;BME280;48704;50.534;6.442;2023-02-19T10:23:10;96178.34;;;5.79;100.00
62634;BME280;48704;50.534;6.442;2023-02-19T10:25:42;96194.50;;;5.81;100.00
62634;BME280;48704;50.534;6.442;2023-02-19T10:28:13;96219.53;;;5.93;100.00
62634;BME280;48704;50.534;6.442;2023-02-19T10:30:40;96189.59;;;5.88;100.00
62634;BME280;48704;50.534;6.442;2023-02-19T10:33:14;96203.59;;;5.97;100.00
62634;BME280;48704;50.534;6.442;2023-02-19T10:36:03;96204.63;;;5.87;100.00
62634;BME280;48704;50.534;6.442;2023-02-19T10:38:32;96205.34;;;5.91;100.00
62634;BME280;48704;50.534;6.442;2023-02-19T10:41:14;96221.94;;;5.91;100.00
62634;BME280;48704;50.534;6.442;2023-02-19T10:43:44;96229.03;;;5.92;100.00
62634;BME280;48704;50.534;6.442;2023-02-19T10:46:19;96220.88;;;6.01;100.00
62634;BME280;48704;50.534;6.442;2023-02-19T10:49:06;96224.00;;;6.03;100.00
62634;BME280;48704;50.534;6.442;2023-02-19T10:51:42;96228.94;;;6.28;100.00
62634;BME280;48704;50.534;6.442;2023-02-19T10:54:16;96226.59;;;6.27;100.00
62634;BME280;48704;50.534;6.442;2023-02-19T10:56:43;96226.50;;;6.30;100.00
62634;BME280;48704;50.534;6.442;2023-02-19T11:02:15;96252.78;;;5.90;100.00
62634;BME280;48704;50.534;6.442;2023-02-19T11:04:41;96266.53;;;5.93;100.00
62634;BME280;48704;50.534;6.442;2023-02-19T11:07:14;96246.28;;;5.96;100.00
62634;BME280;48704;50.534;6.442;2023-02-19T11:09:43;96266.69;;;6.02;100.00
62634;BME280;48704;50.534;6.442;2023-02-19T11:12:12;96255.63;;;6.02;100.00
62634;BME280;48704;50.534;6.442;2023-02-19T11:14:41;96248.38;;;6.09;100.00
62634;BME280;48704;50.534;6.442;2023-02-19T11:17:23;96254.59;;;6.13;100.00
62634;BME280;48704;50.534;6.442;2023-02-19T11:19:57;96247.41;;;5.99;100.00
62634;BME280;48704;50.534;6.442;2023-02-19T11:22:36;96262.69;;;5.87;100.00
62634;BME280;48704;50.534;6.442;2023-02-19T11:27:33;96266.78;;;5.99;100.00
62634;BME280;48704;50.534;6.442;2023-02-19T11:32:47;96275.38;;;5.68;100.00
62634;BME280;48704;50.534;6.442;2023-02-19T11:35:21;96287.69;;;5.64;100.00
62634;BME280;48704;50.534;6.442;2023-02-19T11:37:57;96277.16;;;5.59;100.00
62634;BME280;48704;50.534;6.442;2023-02-19T11:40:35;96286.56;;;5.61;100.00
62634;BME280;48704;50.534;6.442;2023-02-19T11:46:09;96297.47;;;5.52;100.00
62634;BME280;48704;50.534;6.442;2023-02-19T11:54:20;96307.03;;;5.48;100.00
62634;BME280;48704;50.534;6.442;2023-02-19T11:56:55;96287.34;;;5.62;100.00
62634;BME280;48704;50.534;6.442;2023-02-19T12:05:26;96282.91;;;5.84;100.00
62634;BME280;48704;50.534;6.442;2023-02-19T12:13:22;96266.53;;;6.10;100.00
62634;BME280;48704;50.534;6.442;2023-02-19T12:19:05;96280.97;;;6.01;100.00
62634;BME280;48704;50.534;6.442;2023-02-19T12:32:25;96266.25;;;5.88;100.00
62634;BME280;48704;50.534;6.442;2023-02-19T12:35:16;96278.72;;;5.96;100.00
62634;BME280;48704;50.534;6.442;2023-02-19T12:40:51;96270.94;;;5.91;100.00
62634;BME280;48704;50.534;6.442;2023-02-19T12:43:22;96267.19;;;5.81;100.00
62634;BME280;48704;50.534;6.442;2023-02-19T12:46:07;96270.28;;;5.83;100.00
62634;BME280;48704;50.534;6.442;2023-02-19T12:48:45;96265.09;;;5.69;100.00
62634;BME280;48704;50.534;6.442;2023-02-19T12:51:23;96256.63;;;5.76;100.00
62634;BME280;48704;50.534;6.442;2023-02-19T12:54:03;96250.03;;;5.70;100.00
62634;BME280;48704;50.534;6.442;2023-02-19T12:56:38;96256.63;;;5.76;100.00
62634;BME280;48704;50.534;6.442;2023-02-19T12:59:17;96266.69;;;5.86;100.00
62634;BME280;48704;50.534;6.442;2023-02-19T13:01:52;96259.88;;;5.91;100.00
62634;BME280;48704;50.534;6.442;2023-02-19T13:07:07;96267.41;;;5.90;100.00
62634;BME280;48704;50.534;6.442;2023-02-19T13:09:43;96265.47;;;5.87;100.00
62634;BME280;48704;50.534;6.442;2023-02-19T13:12:20;96275.28;;;5.72;100.00
62634;BME280;48704;50.534;6.442;2023-02-19T13:14:57;96272.59;;;5.68;100.00
62634;BME280;48704;50.534;6.442;2023-02-19T13:17:33;96265.78;;;5.73;100.00
62634;BME280;48704;50.534;6.442;2023-02-19T13:20:12;96270.63;;;5.69;100.00
62634;BME280;48704;50.534;6.442;2023-02-19T13:22:50;96279.84;;;5.62;100.00
62634;BME280;48704;50.534;6.442;2023-02-19T13:29:23;96282.53;;;5.66;100.00
62634;BME280;48704;50.534;6.442;2023-02-19T13:35:15;96278.25;;;5.81;100.00
62634;BME280;48704;50.534;6.442;2023-02-19T13:37:43;96276.38;;;5.94;100.00
62634;BME280;48704;50.534;6.442;2023-02-19T13:42:57;96292.44;;;5.83;100.00
62634;BME280;48704;50.534;6.442;2023-02-19T13:45:43;96288.41;;;5.68;100.00
62634;BME280;48704;50.534;6.442;2023-02-19T13:50:48;96279.59;;;5.73;100.00
62634;BME280;48704;50.534;6.442;2023-02-19T14:04:43;96283.38;;;5.63;100.00
62634;BME280;48704;50.534;6.442;2023-02-19T14:12:17;96309.22;;;5.36;100.00
62634;BME280;48704;50.534;6.442;2023-02-19T14:14:44;96304.34;;;5.44;100.00
62634;BME280;48704;50.534;6.442;2023-02-19T14:17:42;96311.34;;;5.49;100.00
62634;BME280;48704;50.534;6.442;2023-02-19T14:30:39;96334.59;;;5.31;100.00
62634;BME280;48704;50.534;6.442;2023-02-19T14:33:09;96325.22;;;5.25;100.00
62634;BME280;48704;50.534;6.442;2023-02-19T14:35:38;96338.34;;;5.41;100.00
62634;BME280;48704;50.534;6.442;2023-02-19T14:38:05;96337.22;;;5.38;100.00
62634;BME280;48704;50.534;6.442;2023-02-19T14:40:36;96335.16;;;5.43;100.00
62634;BME280;48704;50.534;6.442;2023-02-19T14:43:04;96341.53;;;5.40;100.00
62634;BME280;48704;50.534;6.442;2023-02-19T14:45:37;96340.56;;;5.50;100.00
62634;BME280;48704;50.534;6.442;2023-02-19T14:48:16;96332.44;;;5.59;100.00
62634;BME280;48704;50.534;6.442;2023-02-19T14:50:45;96343.84;;;5.61;100.00
62634;BME280;48704;50.534;6.442;2023-02-19T14:53:14;96354.66;;;5.55;100.00
62634;BME280;48704;50.534;6.442;2023-02-19T14:55:40;96350.69;;;5.56;100.00
62634;BME280;48704;50.534;6.442;2023-02-19T14:58:12;96352.84;;;5.65;100.00
62634;BME280;48704;50.534;6.442;2023-02-19T15:00:40;96357.69;;;5.61;100.00
62634;BME280;48704;50.534;6.442;2023-02-19T15:03:23;96360.00;;;5.62;100.00
62634;BME280;48704;50.534;6.442;2023-02-19T15:05:55;96374.13;;;5.68;100.00
62634;BME280;48704;50.534;6.442;2023-02-19T15:08:28;96366.69;;;5.45;100.00